sensor_id;sensor_type;location;lat;lon;timestamp;pressure;altitude;pressure_sealevel;temperature;humidity
4570;BME280;2297;51.442;6.996;2024-01-06T00:00:22;98915.59;;;9.12;57.68
4570;BME280;2297;51.442;6.996;2024-01-06T00:02:49;98918.69;;;9.24;57.38
4570;BME280;2297;51.442;6.996;2024-01-06T00:05:15;98921.00;;;9.09;57.74
4570;BME280;2297;51.442;6.996;2024-01-06T00:07:42;98920.38;;;9.01;57.84
4570;BME280;2297;51.442;6.996;2024-01-06T00:10:09;98922.31;;;9.21;57.46
4570;BME280;2297;51.442;6.996;2024-01-06T00:12:37;98923.63;;;9.09;57.48
4570;BME280;2297;51.442;6.996;2024-01-06T00:15:05;98923.03;;;9.25;57.31
4570;BME280;2297;51.442;6.996;2024-01-06T00:17:32;98925.59;;;9.26;57.26
4570;BME280;2297;51.442;6.996;2024-01-06T00:19:59;98928.31;;;9.25;57.11
4570;BME280;2297;51.442;6.996;2024-01-06T00:22:27;98931.34;;;9.38;56.87
4570;BME280;2297;51.442;6.996;2024-01-06T00:24:54;98936.28;;;9.23;56.94
4570;BME280;2297;51.442;6.996;2024-01-06T00:27:21;98936.91;;;9.30;57.06
4570;BME280;2297;51.442;6.996;2024-01-06T00:29:49;98941.59;;;9.45;56.64
4570;BME280;2297;51.442;6.996;2024-01-06T00:32:15;98946.00;;;9.45;56.70
4570;BME280;2297;51.442;6.996;2024-01-06T00:34:42;98947.44;;;9.30;56.47
4570;BME280;2297;51.442;6.996;2024-01-06T00:37:09;98951.56;;;9.37;56.54
4570;BME280;2297;51.442;6.996;2024-01-06T00:39:35;98953.75;;;9.50;56.46
4570;BME280;2297;51.442;6.996;2024-01-06T00:42:02;98954.66;;;9.48;56.25
4570;BME280;2297;51.442;6.996;2024-01-06T00:44:29;98957.06;;;9.55;55.97
4570;BME280;2297;51.442;6.996;2024-01-06T00:46:57;98956.31;;;9.51;56.25
4570;BME280;2297;51.442;6.996;2024-01-06T00:49:23;98962.69;;;9.45;56.39
4570;BME280;2297;51.442;6.996;2024-01-06T00:51:50;98957.84;;;9.57;56.26
4570;BME280;2297;51.442;6.996;2024-01-06T00:54:17;98959.34;;;9.64;55.87
4570;BME280;2297;51.442;6.996;2024-01-06T00:56:43;98965.47;;;9.64;55.61
4570;BME280;2297;51.442;6.996;2024-01-06T00:59:10;98964.78;;;9.59;55.85
4570;BME280;2297;51.442;6.996;2024-01-06T01:01:37;98959.34;;;9.64;55.92
4570;BME280;2297;51.442;6.996;2024-01-06T01:04:05;98963.81;;;9.62;55.81
4570;BME280;2297;51.442;6.996;2024-01-06T01:06:31;98967.25;;;9.64;55.53
4570;BME280;2297;51.442;6.996;2024-01-06T01:08:58;98962.66;;;9.69;55.46
4570;BME280;2297;51.442;6.996;2024-01-06T01:11:25;98957.06;;;9.55;55.64
4570;BME280;2297;51.442;6.996;2024-01-06T01:13:51;98968.03;;;9.66;55.66
4570;BME280;2297;51.442;6.996;2024-01-06T01:16:18;98963.81;;;9.62;55.49
4570;BME280;2297;51.442;6.996;2024-01-06T01:18:44;98963.56;;;9.68;55.30
4570;BME280;2297;51.442;6.996;2024-01-06T01:21:12;98971.41;;;9.70;55.27
4570;BME280;2297;51.442;6.996;2024-01-06T01:23:39;98967.13;;;9.67;55.59
4570;BME280;2297;51.442;6.996;2024-01-06T01:26:06;98976.56;;;9.73;55.75
4570;BME280;2297;51.442;6.996;2024-01-06T01:28:32;98974.81;;;9.73;55.72
4570;BME280;2297;51.442;6.996;2024-01-06T01:34:21;98981.34;;;9.63;55.87
4570;BME280;2297;51.442;6.996;2024-01-06T01:36:49;98981.97;;;9.70;56.23
4570;BME280;2297;51.442;6.996;2024-01-06T01:39:16;98988.41;;;9.62;55.81
4570;BME280;2297;51.442;6.996;2024-01-06T01:41:43;98997.97;;;9.65;55.85
4570;BME280;2297;51.442;6.996;2024-01-06T01:44:09;99000.97;;;9.56;56.40
4570;BME280;2297;51.442;6.996;2024-01-06T01:46:36;99007.47;;;9.45;56.47
4570;BME280;2297;51.442;6.996;2024-01-06T01:49:04;98998.31;;;9.56;56.33
4570;BME280;2297;51.442;6.996;2024-01-06T01:51:33;99001.97;;;9.52;56.36
4570;BME280;2297;51.442;6.996;2024-01-06T01:54:02;99012.13;;;9.39;57.02
4570;BME280;2297;51.442;6.996;2024-01-06T01:56:30;99004.13;;;9.17;57.57
4570;BME280;2297;51.442;6.996;2024-01-06T01:58:59;99006.22;;;9.32;57.38
4570;BME280;2297;51.442;6.996;2024-01-06T02:01:27;99002.69;;;9.31;57.25
4570;BME280;2297;51.442;6.996;2024-01-06T02:03:54;99008.50;;;9.41;56.97
4570;BME280;2297;51.442;6.996;2024-01-06T02:06:21;99001.06;;;9.53;56.83
4570;BME280;2297;51.442;6.996;2024-01-06T02:08:48;99008.50;;;9.41;56.94
4570;BME280;2297;51.442;6.996;2024-01-06T02:11:16;99011.03;;;9.44;56.69
4570;BME280;2297;51.442;6.996;2024-01-06T02:13:42;99016.06;;;9.51;56.54
4570;BME280;2297;51.442;6.996;2024-01-06T02:16:09;99011.50;;;9.56;56.63
4570;BME280;2297;51.442;6.996;2024-01-06T02:18:36;99019.34;;;9.57;56.46
4570;BME280;2297;51.442;6.996;2024-01-06T02:21:02;99020.06;;;9.61;56.44
4570;BME280;2297;51.442;6.996;2024-01-06T02:23:31;99025.00;;;9.70;56.42
4570;BME280;2297;51.442;6.996;2024-01-06T02:25:57;99015.31;;;9.71;56.22
4570;BME280;2297;51.442;6.996;2024-01-06T02:28:24;99020.38;;;9.77;55.83
4570;BME280;2297;51.442;6.996;2024-01-06T02:30:51;99023.75;;;9.57;56.11
4570;BME280;2297;51.442;6.996;2024-01-06T02:33:17;99028.31;;;9.52;56.12
4570;BME280;2297;51.442;6.996;2024-01-06T02:35:44;99038.19;;;9.46;56.32
4570;BME280;2297;51.442;6.996;2024-01-06T02:38:11;99036.81;;;9.36;56.32
4570;BME280;2297;51.442;6.996;2024-01-06T02:40:39;99040.13;;;9.41;56.24
4570;BME280;2297;51.442;6.996;2024-01-06T02:43:06;99045.28;;;9.44;56.10
4570;BME280;2297;51.442;6.996;2024-01-06T02:45:32;99046.25;;;9.42;56.03
4570;BME280;2297;51.442;6.996;2024-01-06T02:47:59;99046.38;;;9.39;56.32
4570;BME280;2297;51.442;6.996;2024-01-06T02:50:26;99056.16;;;9.35;56.21
4570;BME280;2297;51.442;6.996;2024-01-06T02:52:52;99055.81;;;9.44;56.24
4570;BME280;2297;51.442;6.996;2024-01-06T02:55:19;99057.56;;;9.45;56.17
4570;BME280;2297;51.442;6.996;2024-01-06T02:57:47;99060.41;;;9.39;56.28
4570;BME280;2297;51.442;6.996;2024-01-06T03:00:14;99067.34;;;9.42;56.07
4570;BME280;2297;51.442;6.996;2024-01-06T03:02:41;99068.94;;;9.46;56.20
4570;BME280;2297;51.442;6.996;2024-01-06T03:05:08;99078.69;;;9.44;56.05
4570;BME280;2297;51.442;6.996;2024-01-06T03:07:35;99078.72;;;9.42;55.57
4570;BME280;2297;51.442;6.996;2024-01-06T03:10:01;99080.13;;;9.53;55.97
4570;BME280;2297;51.442;6.996;2024-01-06T03:12:29;99083.63;;;9.53;55.74
4570;BME280;2297;51.442;6.996;2024-01-06T03:14:57;99084.16;;;9.63;55.49
4570;BME280;2297;51.442;6.996;2024-01-06T03:17:23;99087.69;;;9.62;55.53
4570;BME280;2297;51.442;6.996;2024-01-06T03:19:50;99088.50;;;9.64;54.88
4570;BME280;2297;51.442;6.996;2024-01-06T03:22:16;99086.91;;;9.60;54.85
4570;BME280;2297;51.442;6.996;2024-01-06T03:24:43;99088.84;;;9.55;54.51
4570;BME280;2297;51.442;6.996;2024-01-06T03:27:10;99097.66;;;9.54;54.51
4570;BME280;2297;51.442;6.996;2024-01-06T03:29:38;99095.94;;;9.53;54.41
4570;BME280;2297;51.442;6.996;2024-01-06T03:32:06;99091.69;;;9.48;54.25
4570;BME280;2297;51.442;6.996;2024-01-06T03:34:33;99102.41;;;9.44;53.98
4570;BME280;2297;51.442;6.996;2024-01-06T03:36:59;99110.34;;;9.42;53.71
4570;BME280;2297;51.442;6.996;2024-01-06T03:39:26;99112.13;;;9.17;53.68
4570;BME280;2297;51.442;6.996;2024-01-06T03:41:52;99113.47;;;8.76;53.29
4570;BME280;2297;51.442;6.996;2024-01-06T03:44:19;99119.13;;;8.91;52.59
4570;BME280;2297;51.442;6.996;2024-01-06T03:46:46;99129.66;;;8.91;53.17
4570;BME280;2297;51.442;6.996;2024-01-06T03:49:13;99132.91;;;8.99;52.48
4570;BME280;2297;51.442;6.996;2024-01-06T03:51:40;99134.81;;;8.94;51.78
4570;BME280;2297;51.442;6.996;2024-01-06T03:54:07;99134.53;;;9.03;51.92
4570;BME280;2297;51.442;6.996;2024-01-06T03:56:33;99136.31;;;9.01;51.54
4570;BME280;2297;51.442;6.996;2024-01-06T03:59:00;99145.25;;;8.97;51.22
4570;BME280;2297;51.442;6.996;2024-01-06T04:01:27;99149.72;;;8.95;51.18
4570;BME280;2297;51.442;6.996;2024-01-06T04:03:54;99161.16;;;8.94;50.96
4570;BME280;2297;51.442;6.996;2024-01-06T04:06:22;99154.75;;;9.03;51.08
4570;BME280;2297;51.442;6.996;2024-01-06T04:08:48;99146.97;;;8.98;51.17
4570;BME280;2297;51.442;6.996;2024-01-06T04:11:15;99148.69;;;8.99;51.17
4570;BME280;2297;51.442;6.996;2024-01-06T04:13:42;99161.94;;;8.97;50.78
4570;BME280;2297;51.442;6.996;2024-01-06T04:16:08;99155.78;;;8.97;50.59
4570;BME280;2297;51.442;6.996;2024-01-06T04:18:35;99159.53;;;8.90;50.63
4570;BME280;2297;51.442;6.996;2024-01-06T04:21:02;99163.91;;;8.89;50.43
4570;BME280;2297;51.442;6.996;2024-01-06T04:23:31;99157.91;;;8.86;50.51
4570;BME280;2297;51.442;6.996;2024-01-06T04:25:58;99166.06;;;8.78;50.54
4570;BME280;2297;51.442;6.996;2024-01-06T04:28:24;99161.44;;;8.85;50.98
4570;BME280;2297;51.442;6.996;2024-01-06T04:30:51;99163.19;;;8.86;50.78
4570;BME280;2297;51.442;6.996;2024-01-06T04:33:18;99165.72;;;8.89;50.29
4570;BME280;2297;51.442;6.996;2024-01-06T04:35:44;99168.34;;;8.89;50.60
4570;BME280;2297;51.442;6.996;2024-01-06T04:38:10;99164.88;;;8.87;50.43
4570;BME280;2297;51.442;6.996;2024-01-06T04:40:38;99165.75;;;8.87;50.49
4570;BME280;2297;51.442;6.996;2024-01-06T04:43:04;99170.06;;;8.90;50.87
4570;BME280;2297;51.442;6.996;2024-01-06T04:45:31;99171.69;;;8.94;50.59
4570;BME280;2297;51.442;6.996;2024-01-06T04:47:58;99172.53;;;8.94;50.34
4570;BME280;2297;51.442;6.996;2024-01-06T04:50:24;99171.81;;;8.91;50.67
4570;BME280;2297;51.442;6.996;2024-01-06T04:52:51;99175.22;;;8.93;50.72
4570;BME280;2297;51.442;6.996;2024-01-06T04:55:18;99171.69;;;8.94;50.36
4570;BME280;2297;51.442;6.996;2024-01-06T04:57:46;99171.56;;;8.97;50.42
4570;BME280;2297;51.442;6.996;2024-01-06T05:00:13;99176.84;;;8.97;49.96
4570;BME280;2297;51.442;6.996;2024-01-06T05:02:39;99178.69;;;8.95;50.52
4570;BME280;2297;51.442;6.996;2024-01-06T05:05:06;99181.69;;;8.82;50.55
4570;BME280;2297;51.442;6.996;2024-01-06T05:07:33;99183.38;;;8.85;50.33
4570;BME280;2297;51.442;6.996;2024-01-06T05:10:00;99187.00;;;8.81;50.54
4570;BME280;2297;51.442;6.996;2024-01-06T05:12:27;99184.44;;;8.79;50.60
4570;BME280;2297;51.442;6.996;2024-01-06T05:14:55;99192.22;;;8.82;50.21
4570;BME280;2297;51.442;6.996;2024-01-06T05:17:21;99195.91;;;8.77;50.37
4570;BME280;2297;51.442;6.996;2024-01-06T05:19:48;99197.69;;;8.76;50.22
4570;BME280;2297;51.442;6.996;2024-01-06T05:22:15;99201.94;;;8.80;50.18
4570;BME280;2297;51.442;6.996;2024-01-06T05:24:41;99203.69;;;8.81;50.34
4570;BME280;2297;51.442;6.996;2024-01-06T05:27:08;99203.88;;;8.75;49.95
4570;BME280;2297;51.442;6.996;2024-01-06T05:29:34;99209.66;;;8.57;50.27
4570;BME280;2297;51.442;6.996;2024-01-06T05:32:03;99207.75;;;8.62;50.38
4570;BME280;2297;51.442;6.996;2024-01-06T05:34:29;99211.94;;;8.69;50.73
4570;BME280;2297;51.442;6.996;2024-01-06T05:36:57;99210.94;;;8.73;50.45
4570;BME280;2297;51.442;6.996;2024-01-06T05:39:23;99203.75;;;8.78;50.13
4570;BME280;2297;51.442;6.996;2024-01-06T05:41:50;99207.22;;;8.80;50.23
4570;BME280;2297;51.442;6.996;2024-01-06T05:44:17;99208.00;;;8.84;50.35
4570;BME280;2297;51.442;6.996;2024-01-06T05:46:43;99213.34;;;8.81;49.96
4570;BME280;2297;51.442;6.996;2024-01-06T05:49:11;99223.81;;;8.82;50.17
4570;BME280;2297;51.442;6.996;2024-01-06T05:51:44;99216.97;;;8.77;50.07
4570;BME280;2297;51.442;6.996;2024-01-06T05:54:10;99227.50;;;8.77;49.97
4570;BME280;2297;51.442;6.996;2024-01-06T05:56:37;99235.72;;;8.66;50.07
4570;BME280;2297;51.442;6.996;2024-01-06T05:59:04;99235.91;;;8.58;50.29
4570;BME280;2297;51.442;6.996;2024-01-06T06:01:30;99235.13;;;8.56;49.79
4570;BME280;2297;51.442;6.996;2024-01-06T06:03:57;99237.78;;;8.55;50.03
4570;BME280;2297;51.442;6.996;2024-01-06T06:06:25;99240.41;;;8.55;50.18
4570;BME280;2297;51.442;6.996;2024-01-06T06:08:52;99237.78;;;8.55;50.44
4570;BME280;2297;51.442;6.996;2024-01-06T06:11:19;99250.75;;;8.61;50.33
4570;BME280;2297;51.442;6.996;2024-01-06T06:13:45;99245.41;;;8.64;49.80
4570;BME280;2297;51.442;6.996;2024-01-06T06:16:12;99255.03;;;8.65;49.54
4570;BME280;2297;51.442;6.996;2024-01-06T06:18:39;99252.38;;;8.67;49.51
4570;BME280;2297;51.442;6.996;2024-01-06T06:21:06;99257.66;;;8.65;49.59
4570;BME280;2297;51.442;6.996;2024-01-06T06:23:34;99263.91;;;8.61;49.44
4570;BME280;2297;51.442;6.996;2024-01-06T06:26:04;99264.19;;;8.52;49.64
4570;BME280;2297;51.442;6.996;2024-01-06T06:28:31;99274.63;;;8.55;49.76
4570;BME280;2297;51.442;6.996;2024-01-06T06:30:57;99270.44;;;8.47;49.77
4570;BME280;2297;51.442;6.996;2024-01-06T06:33:24;99277.88;;;8.33;49.72
4570;BME280;2297;51.442;6.996;2024-01-06T06:35:51;99288.91;;;8.46;49.83
4570;BME280;2297;51.442;6.996;2024-01-06T06:38:17;99300.28;;;8.46;49.55
4570;BME280;2297;51.442;6.996;2024-01-06T06:40:45;99303.63;;;8.53;49.97
4570;BME280;2297;51.442;6.996;2024-01-06T06:43:12;99308.13;;;8.50;49.88
4570;BME280;2297;51.442;6.996;2024-01-06T06:45:39;99312.19;;;8.60;49.87
4570;BME280;2297;51.442;6.996;2024-01-06T06:48:06;99314.09;;;8.55;50.15
4570;BME280;2297;51.442;6.996;2024-01-06T06:50:33;99312.28;;;8.57;50.43
4570;BME280;2297;51.442;6.996;2024-01-06T06:52:59;99320.03;;;8.63;50.55
4570;BME280;2297;51.442;6.996;2024-01-06T06:55:27;99316.47;;;8.64;50.79
4570;BME280;2297;51.442;6.996;2024-01-06T06:57:55;99328.94;;;8.57;51.03
4570;BME280;2297;51.442;6.996;2024-01-06T07:00:22;99327.19;;;8.58;50.91
4570;BME280;2297;51.442;6.996;2024-01-06T07:02:48;99334.34;;;8.53;51.16
4570;BME280;2297;51.442;6.996;2024-01-06T07:05:15;99339.50;;;8.56;51.03
4570;BME280;2297;51.442;6.996;2024-01-06T07:07:42;99339.59;;;8.53;51.27
4570;BME280;2297;51.442;6.996;2024-01-06T07:10:12;99348.09;;;8.31;51.33
4570;BME280;2297;51.442;6.996;2024-01-06T07:12:38;99353.22;;;8.36;51.75
4570;BME280;2297;51.442;6.996;2024-01-06T07:15:07;99362.06;;;8.33;52.02
4570;BME280;2297;51.442;6.996;2024-01-06T07:17:35;99361.00;;;8.40;52.00
4570;BME280;2297;51.442;6.996;2024-01-06T07:20:01;99364.44;;;8.42;51.85
4570;BME280;2297;51.442;6.996;2024-01-06T07:22:28;99368.72;;;8.46;52.12
4570;BME280;2297;51.442;6.996;2024-01-06T07:24:55;99372.22;;;8.47;51.76
4570;BME280;2297;51.442;6.996;2024-01-06T07:27:21;99384.53;;;8.45;51.92
4570;BME280;2297;51.442;6.996;2024-01-06T07:29:48;99372.47;;;8.38;51.62
4570;BME280;2297;51.442;6.996;2024-01-06T07:32:16;99382.53;;;8.22;52.54
4570;BME280;2297;51.442;6.996;2024-01-06T07:34:42;99386.91;;;8.21;52.06
4570;BME280;2297;51.442;6.996;2024-01-06T07:37:09;99388.78;;;8.16;52.24
4570;BME280;2297;51.442;6.996;2024-01-06T07:39:36;99392.31;;;8.17;52.18
4570;BME280;2297;51.442;6.996;2024-01-06T07:42:03;99398.66;;;8.08;52.75
4570;BME280;2297;51.442;6.996;2024-01-06T07:44:30;99406.69;;;8.02;52.66
4570;BME280;2297;51.442;6.996;2024-01-06T07:46:56;99404.31;;;7.91;53.14
4570;BME280;2297;51.442;6.996;2024-01-06T07:49:24;99414.09;;;7.86;53.04
4570;BME280;2297;51.442;6.996;2024-01-06T07:51:51;99412.44;;;7.81;53.44
4570;BME280;2297;51.442;6.996;2024-01-06T07:54:17;99415.91;;;7.84;53.20
4570;BME280;2297;51.442;6.996;2024-01-06T07:56:44;99423.16;;;7.72;53.26
4570;BME280;2297;51.442;6.996;2024-01-06T07:59:10;99420.75;;;7.63;53.75
4570;BME280;2297;51.442;6.996;2024-01-06T08:01:37;99432.78;;;7.73;53.03
4570;BME280;2297;51.442;6.996;2024-01-06T08:04:04;99437.28;;;7.68;53.20
4570;BME280;2297;51.442;6.996;2024-01-06T08:06:32;99440.19;;;7.56;53.22
4570;BME280;2297;51.442;6.996;2024-01-06T08:08:58;99444.47;;;7.60;53.09
4570;BME280;2297;51.442;6.996;2024-01-06T08:11:25;99446.34;;;7.55;53.60
4570;BME280;2297;51.442;6.996;2024-01-06T08:13:52;99450.63;;;7.59;53.55
4570;BME280;2297;51.442;6.996;2024-01-06T08:16:19;99450.59;;;7.60;53.27
4570;BME280;2297;51.442;6.996;2024-01-06T08:18:45;99454.34;;;7.48;53.40
4570;BME280;2297;51.442;6.996;2024-01-06T08:21:12;99462.03;;;7.58;53.31
4570;BME280;2297;51.442;6.996;2024-01-06T08:23:40;99468.94;;;7.62;53.62
4570;BME280;2297;51.442;6.996;2024-01-06T08:26:07;99466.25;;;7.65;53.24
4570;BME280;2297;51.442;6.996;2024-01-06T08:28:33;99469.03;;;7.59;53.31
4570;BME280;2297;51.442;6.996;2024-01-06T08:31:00;99475.03;;;7.64;53.21
4570;BME280;2297;51.442;6.996;2024-01-06T08:33:26;99486.59;;;7.55;53.45
4570;BME280;2297;51.442;6.996;2024-01-06T08:35:53;99476.81;;;7.62;53.53
4570;BME280;2297;51.442;6.996;2024-01-06T08:38:20;99494.31;;;7.63;53.29
4570;BME280;2297;51.442;6.996;2024-01-06T08:40:49;99503.25;;;7.56;53.33
4570;BME280;2297;51.442;6.996;2024-01-06T08:43:17;99493.53;;;7.59;53.69
4570;BME280;2297;51.442;6.996;2024-01-06T08:45:46;99506.56;;;7.64;53.17
4570;BME280;2297;51.442;6.996;2024-01-06T08:48:13;99508.56;;;7.53;53.57
4570;BME280;2297;51.442;6.996;2024-01-06T08:50:40;99511.84;;;7.64;53.21
4570;BME280;2297;51.442;6.996;2024-01-06T08:53:07;99514.41;;;7.65;53.69
4570;BME280;2297;51.442;6.996;2024-01-06T08:55:33;99523.19;;;7.64;53.21
4570;BME280;2297;51.442;6.996;2024-01-06T08:58:02;99521.56;;;7.59;52.75
4570;BME280;2297;51.442;6.996;2024-01-06T09:00:28;99526.69;;;7.67;52.83
4570;BME280;2297;51.442;6.996;2024-01-06T09:02:55;99533.56;;;7.72;52.55
4570;BME280;2297;51.442;6.996;2024-01-06T09:05:21;99539.66;;;7.74;52.01
4570;BME280;2297;51.442;6.996;2024-01-06T09:07:48;99544.97;;;7.71;52.02
4570;BME280;2297;51.442;6.996;2024-01-06T09:10:16;99548.03;;;7.50;52.74
4570;BME280;2297;51.442;6.996;2024-01-06T09:12:42;99544.22;;;7.66;52.03
4570;BME280;2297;51.442;6.996;2024-01-06T09:15:10;99550.16;;;7.74;52.22
4570;BME280;2297;51.442;6.996;2024-01-06T09:17:37;99561.66;;;7.70;52.13
4570;BME280;2297;51.442;6.996;2024-01-06T09:20:05;99562.22;;;7.85;51.77
4570;BME280;2297;51.442;6.996;2024-01-06T09:22:31;99565.13;;;7.71;51.75
4570;BME280;2297;51.442;6.996;2024-01-06T09:24:58;99565.06;;;7.74;51.70
4570;BME280;2297;51.442;6.996;2024-01-06T09:27:25;99573.78;;;7.76;51.95
4570;BME280;2297;51.442;6.996;2024-01-06T09:29:52;99567.47;;;7.85;51.88
4570;BME280;2297;51.442;6.996;2024-01-06T09:32:19;99572.81;;;7.80;51.98
4570;BME280;2297;51.442;6.996;2024-01-06T09:34:48;99579.97;;;7.73;52.16
4570;BME280;2297;51.442;6.996;2024-01-06T09:37:14;99590.69;;;7.64;52.39
4570;BME280;2297;51.442;6.996;2024-01-06T09:39:41;99587.31;;;7.57;52.47
4570;BME280;2297;51.442;6.996;2024-01-06T09:42:08;99588.19;;;7.56;52.42
4570;BME280;2297;51.442;6.996;2024-01-06T09:44:36;99596.00;;;7.61;51.97
4570;BME280;2297;51.442;6.996;2024-01-06T09:47:03;99593.31;;;7.64;51.96
4570;BME280;2297;51.442;6.996;2024-01-06T09:49:32;99593.25;;;7.65;51.78
4570;BME280;2297;51.442;6.996;2024-01-06T09:52:03;99596.88;;;7.60;51.67
4570;BME280;2297;51.442;6.996;2024-01-06T09:54:34;99593.19;;;7.70;51.50
4570;BME280;2297;51.442;6.996;2024-01-06T09:57:03;99604.59;;;7.69;51.61
4570;BME280;2297;51.442;6.996;2024-01-06T09:59:31;99606.34;;;7.70;51.74
4570;BME280;2297;51.442;6.996;2024-01-06T10:02:00;99611.50;;;7.73;51.99
4570;BME280;2297;51.442;6.996;2024-01-06T10:04:27;99616.97;;;7.64;51.99
4570;BME280;2297;51.442;6.996;2024-01-06T10:06:55;99621.38;;;7.62;52.46
4570;BME280;2297;51.442;6.996;2024-01-06T10:09:26;99625.69;;;7.66;52.33
4570;BME280;2297;51.442;6.996;2024-01-06T10:11:55;99625.72;;;7.63;52.15
4570;BME280;2297;51.442;6.996;2024-01-06T10:14:23;99635.47;;;7.58;52.07
4570;BME280;2297;51.442;6.996;2024-01-06T10:16:50;99635.78;;;7.42;52.12
4570;BME280;2297;51.442;6.996;2024-01-06T10:19:16;99640.84;;;7.52;52.10
4570;BME280;2297;51.442;6.996;2024-01-06T10:21:43;99641.69;;;7.54;51.59
4570;BME280;2297;51.442;6.996;2024-01-06T10:24:11;99639.81;;;7.59;51.66
4570;BME280;2297;51.442;6.996;2024-01-06T10:26:39;99647.81;;;7.53;51.20
4570;BME280;2297;51.442;6.996;2024-01-06T10:29:05;99650.78;;;7.34;51.34
4570;BME280;2297;51.442;6.996;2024-01-06T10:31:32;99642.72;;;7.45;51.56
4570;BME280;2297;51.442;6.996;2024-01-06T10:34:00;99651.38;;;7.50;51.63
4570;BME280;2297;51.442;6.996;2024-01-06T10:36:28;99647.91;;;7.48;51.77
4570;BME280;2297;51.442;6.996;2024-01-06T10:38:57;99650.41;;;7.56;51.42
4570;BME280;2297;51.442;6.996;2024-01-06T10:41:25;99640.78;;;7.55;51.34
4570;BME280;2297;51.442;6.996;2024-01-06T10:43:52;99649.66;;;7.49;51.72
4570;BME280;2297;51.442;6.996;2024-01-06T10:46:22;99654.16;;;7.42;52.26
4570;BME280;2297;51.442;6.996;2024-01-06T10:48:51;99659.34;;;7.45;51.64
4570;BME280;2297;51.442;6.996;2024-01-06T10:51:19;99657.69;;;7.41;51.53
4570;BME280;2297;51.442;6.996;2024-01-06T10:53:47;99650.75;;;7.37;51.28
4570;BME280;2297;51.442;6.996;2024-01-06T10:56:15;99656.97;;;7.33;51.35
4570;BME280;2297;51.442;6.996;2024-01-06T10:58:45;99647.25;;;7.38;51.47
4570;BME280;2297;51.442;6.996;2024-01-06T11:01:15;99653.53;;;7.28;51.64
4570;BME280;2297;51.442;6.996;2024-01-06T11:03:42;99654.44;;;7.27;51.62
4570;BME280;2297;51.442;6.996;2024-01-06T11:06:10;99658.81;;;7.23;51.78
4570;BME280;2297;51.442;6.996;2024-01-06T11:08:44;99656.19;;;7.25;51.38
4570;BME280;2297;51.442;6.996;2024-01-06T11:11:15;99658.06;;;7.17;51.54
4570;BME280;2297;51.442;6.996;2024-01-06T11:13:43;99660.59;;;7.23;51.54
4570;BME280;2297;51.442;6.996;2024-01-06T11:16:35;99659.81;;;7.18;51.64
4570;BME280;2297;51.442;6.996;2024-01-06T11:19:02;99655.31;;;7.24;51.59
4570;BME280;2297;51.442;6.996;2024-01-06T11:21:33;99650.94;;;7.25;51.80
4570;BME280;2297;51.442;6.996;2024-01-06T11:24:14;99654.50;;;7.21;51.83
4570;BME280;2297;51.442;6.996;2024-01-06T11:26:43;99659.75;;;7.21;51.38
4570;BME280;2297;51.442;6.996;2024-01-06T11:29:11;99657.28;;;7.13;51.52
4570;BME280;2297;51.442;6.996;2024-01-06T11:31:38;99657.19;;;7.18;51.49
4570;BME280;2297;51.442;6.996;2024-01-06T11:34:16;99657.13;;;7.21;51.84
4570;BME280;2297;51.442;6.996;2024-01-06T11:36:44;99650.84;;;7.31;51.79
4570;BME280;2297;51.442;6.996;2024-01-06T11:39:34;99656.97;;;7.33;51.71
4570;BME280;2297;51.442;6.996;2024-01-06T11:42:00;99658.03;;;7.20;52.10
4570;BME280;2297;51.442;6.996;2024-01-06T11:44:29;99657.28;;;7.11;52.03
4570;BME280;2297;51.442;6.996;2024-01-06T11:46:56;99665.16;;;7.11;52.21
4570;BME280;2297;51.442;6.996;2024-01-06T11:49:26;99659.03;;;7.11;51.77
4570;BME280;2297;51.442;6.996;2024-01-06T11:51:53;99660.88;;;7.06;52.01
4570;BME280;2297;51.442;6.996;2024-01-06T11:54:20;99664.41;;;7.03;51.72
4570;BME280;2297;51.442;6.996;2024-01-06T11:56:48;99664.66;;;6.89;51.93
4570;BME280;2297;51.442;6.996;2024-01-06T11:59:14;99669.00;;;6.92;51.99
4570;BME280;2297;51.442;6.996;2024-01-06T12:01:42;99677.94;;;6.78;52.44
4570;BME280;2297;51.442;6.996;2024-01-06T12:04:13;99667.31;;;6.86;51.99
4570;BME280;2297;51.442;6.996;2024-01-06T12:06:43;99669.97;;;6.85;52.06
4570;BME280;2297;51.442;6.996;2024-01-06T12:09:11;99673.38;;;6.91;52.32
4570;BME280;2297;51.442;6.996;2024-01-06T12:11:39;99673.34;;;6.94;52.01
4570;BME280;2297;51.442;6.996;2024-01-06T12:14:06;99678.59;;;6.94;51.64
4570;BME280;2297;51.442;6.996;2024-01-06T12:16:33;99684.81;;;6.87;51.20
4570;BME280;2297;51.442;6.996;2024-01-06T12:19:01;99687.56;;;6.78;51.04
4570;BME280;2297;51.442;6.996;2024-01-06T12:21:29;99695.41;;;6.79;50.85
4570;BME280;2297;51.442;6.996;2024-01-06T12:24:12;99692.84;;;6.76;50.48
4570;BME280;2297;51.442;6.996;2024-01-06T12:29:47;99689.34;;;6.77;50.11
4570;BME280;2297;51.442;6.996;2024-01-06T12:32:14;99688.44;;;6.77;49.68
4570;BME280;2297;51.442;6.996;2024-01-06T12:34:42;99685.75;;;6.83;49.61
4570;BME280;2297;51.442;6.996;2024-01-06T12:37:09;99682.44;;;6.70;49.74
4570;BME280;2297;51.442;6.996;2024-01-06T12:39:35;99691.22;;;6.68;49.12
4570;BME280;2297;51.442;6.996;2024-01-06T12:42:02;99697.34;;;6.68;48.96
4570;BME280;2297;51.442;6.996;2024-01-06T12:44:29;99701.06;;;6.52;49.31
4570;BME280;2297;51.442;6.996;2024-01-06T12:46:57;99696.63;;;6.57;49.40
4570;BME280;2297;51.442;6.996;2024-01-06T12:49:24;99713.31;;;6.53;49.63
4570;BME280;2297;51.442;6.996;2024-01-06T12:51:52;99708.00;;;6.56;49.68
4570;BME280;2297;51.442;6.996;2024-01-06T12:54:19;99705.56;;;6.43;49.77
4570;BME280;2297;51.442;6.996;2024-01-06T12:56:46;99706.19;;;6.61;49.61
4570;BME280;2297;51.442;6.996;2024-01-06T12:59:12;99709.56;;;6.69;49.81
4570;BME280;2297;51.442;6.996;2024-01-06T13:01:39;99708.69;;;6.69;49.41
4570;BME280;2297;51.442;6.996;2024-01-06T13:04:36;99709.53;;;6.72;49.24
4570;BME280;2297;51.442;6.996;2024-01-06T13:07:05;99712.16;;;6.72;49.44
4570;BME280;2297;51.442;6.996;2024-01-06T13:09:31;99713.00;;;6.73;49.99
4570;BME280;2297;51.442;6.996;2024-01-06T13:11:59;99711.28;;;6.73;49.43
4570;BME280;2297;51.442;6.996;2024-01-06T13:14:26;99722.63;;;6.74;49.68
4570;BME280;2297;51.442;6.996;2024-01-06T13:16:54;99713.84;;;6.76;49.80
4570;BME280;2297;51.442;6.996;2024-01-06T13:19:20;99728.84;;;6.68;49.83
4570;BME280;2297;51.442;6.996;2024-01-06T13:21:47;99721.91;;;6.64;49.99
4570;BME280;2297;51.442;6.996;2024-01-06T13:24:15;99724.63;;;6.56;50.46
4570;BME280;2297;51.442;6.996;2024-01-06T13:26:42;99723.78;;;6.53;50.54
4570;BME280;2297;51.442;6.996;2024-01-06T13:29:08;99730.66;;;6.63;50.44
4570;BME280;2297;51.442;6.996;2024-01-06T13:31:35;99735.94;;;6.58;50.38
4570;BME280;2297;51.442;6.996;2024-01-06T13:34:02;99733.31;;;6.60;50.83
4570;BME280;2297;51.442;6.996;2024-01-06T13:36:29;99737.78;;;6.55;50.23
4570;BME280;2297;51.442;6.996;2024-01-06T13:38:56;99739.47;;;6.59;50.01